sensor_id;sensor_type;location;lat;lon;timestamp;P1;durP1;ratioP1;P2;durP2;ratioP2
66603;SDS011;53460;39.612;8.822;2023-06-14T00:02:17;2.28;;;1.30;;
66603;SDS011;53460;39.612;8.822;2023-06-14T00:04:43;2.30;;;1.38;;
66603;SDS011;53460;39.612;8.822;2023-06-14T00:07:09;2.85;;;1.30;;
66603;SDS011;53460;39.612;8.822;2023-06-14T00:09:34;2.63;;;1.48;;
66603;SDS011;53460;39.612;8.822;2023-06-14T00:12:00;4.05;;;1.70;;
66603;SDS011;53460;39.612;8.822;2023-06-14T00:14:26;3.10;;;1.35;;
66603;SDS011;53460;39.612;8.822;2023-06-14T00:16:51;3.60;;;1.15;;
66603;SDS011;53460;39.612;8.822;2023-06-14T00:19:24;3.00;;;1.17;;
66603;SDS011;53460;39.612;8.822;2023-06-14T00:21:49;2.80;;;1.30;;
66603;SDS011;53460;39.612;8.822;2023-06-14T00:24:17;3.17;;;1.38;;
66603;SDS011;53460;39.612;8.822;2023-06-14T00:26:42;3.95;;;1.42;;
66603;SDS011;53460;39.612;8.822;2023-06-14T00:29:08;6.90;;;1.50;;
66603;SDS011;53460;39.612;8.822;2023-06-14T00:31:33;2.85;;;1.33;;
66603;SDS011;53460;39.612;8.822;2023-06-14T00:33:59;2.83;;;1.63;;
66603;SDS011;53460;39.612;8.822;2023-06-14T00:36:24;5.57;;;1.38;;
66603;SDS011;53460;39.612;8.822;2023-06-14T00:38:50;3.90;;;1.90;;
66603;SDS011;53460;39.612;8.822;2023-06-14T00:41:15;2.28;;;1.40;;
66603;SDS011;53460;39.612;8.822;2023-06-14T00:43:41;6.05;;;1.73;;
66603;SDS011;53460;39.612;8.822;2023-06-14T00:46:07;3.75;;;1.58;;
66603;SDS011;53460;39.612;8.822;2023-06-14T00:48:33;4.30;;;1.73;;
66603;SDS011;53460;39.612;8.822;2023-06-14T00:50:58;2.38;;;1.55;;
66603;SDS011;53460;39.612;8.822;2023-06-14T00:53:29;5.13;;;1.95;;
66603;SDS011;53460;39.612;8.822;2023-06-14T00:55:55;4.43;;;1.83;;
66603;SDS011;53460;39.612;8.822;2023-06-14T00:58:21;4.07;;;1.90;;
66603;SDS011;53460;39.612;8.822;2023-06-14T01:00:47;3.72;;;1.77;;
66603;SDS011;53460;39.612;8.822;2023-06-14T01:03:12;3.45;;;1.77;;
66603;SDS011;53460;39.612;8.822;2023-06-14T01:05:39;4.25;;;2.20;;
66603;SDS011;53460;39.612;8.822;2023-06-14T01:09:06;3.38;;;1.60;;
66603;SDS011;53460;39.612;8.822;2023-06-14T01:11:07;3.00;;;1.90;;
66603;SDS011;53460;39.612;8.822;2023-06-14T01:13:38;3.75;;;1.73;;
66603;SDS011;53460;39.612;8.822;2023-06-14T01:16:06;2.67;;;1.60;;
66603;SDS011;53460;39.612;8.822;2023-06-14T01:18:33;2.30;;;1.63;;
66603;SDS011;53460;39.612;8.822;2023-06-14T01:21:01;4.55;;;2.28;;
66603;SDS011;53460;39.612;8.822;2023-06-14T01:23:30;3.58;;;1.88;;
66603;SDS011;53460;39.612;8.822;2023-06-14T01:25:58;3.88;;;1.80;;
66603;SDS011;53460;39.612;8.822;2023-06-14T01:28:24;2.97;;;1.60;;
66603;SDS011;53460;39.612;8.822;2023-06-14T01:30:51;5.32;;;2.30;;
66603;SDS011;53460;39.612;8.822;2023-06-14T01:33:24;2.90;;;1.95;;
66603;SDS011;53460;39.612;8.822;2023-06-14T01:35:51;3.92;;;2.03;;
66603;SDS011;53460;39.612;8.822;2023-06-14T01:38:18;2.40;;;1.65;;
66603;SDS011;53460;39.612;8.822;2023-06-14T01:40:44;2.70;;;1.63;;
66603;SDS011;53460;39.612;8.822;2023-06-14T01:43:11;5.43;;;2.47;;
66603;SDS011;53460;39.612;8.822;2023-06-14T01:45:36;4.72;;;1.60;;
66603;SDS011;53460;39.612;8.822;2023-06-14T01:48:03;3.10;;;1.92;;
66603;SDS011;53460;39.612;8.822;2023-06-14T01:50:30;6.72;;;2.10;;
66603;SDS011;53460;39.612;8.822;2023-06-14T01:52:56;5.55;;;2.00;;
66603;SDS011;53460;39.612;8.822;2023-06-14T01:55:22;6.65;;;2.25;;
66603;SDS011;53460;39.612;8.822;2023-06-14T01:57:47;5.32;;;2.20;;
66603;SDS011;53460;39.612;8.822;2023-06-14T02:00:13;4.22;;;1.98;;
66603;SDS011;53460;39.612;8.822;2023-06-14T02:02:40;6.55;;;2.05;;
66603;SDS011;53460;39.612;8.822;2023-06-14T02:05:05;5.15;;;1.75;;
66603;SDS011;53460;39.612;8.822;2023-06-14T02:07:31;5.53;;;1.77;;
66603;SDS011;53460;39.612;8.822;2023-06-14T02:09:56;4.72;;;1.83;;
66603;SDS011;53460;39.612;8.822;2023-06-14T02:12:22;5.32;;;2.00;;
66603;SDS011;53460;39.612;8.822;2023-06-14T02:14:47;7.82;;;2.13;;
66603;SDS011;53460;39.612;8.822;2023-06-14T02:17:14;8.55;;;2.72;;
66603;SDS011;53460;39.612;8.822;2023-06-14T02:19:40;4.65;;;1.83;;
66603;SDS011;53460;39.612;8.822;2023-06-14T02:22:06;5.30;;;1.88;;
66603;SDS011;53460;39.612;8.822;2023-06-14T02:24:33;3.50;;;2.22;;
66603;SDS011;53460;39.612;8.822;2023-06-14T02:26:59;4.50;;;2.15;;
66603;SDS011;53460;39.612;8.822;2023-06-14T02:29:25;8.77;;;1.90;;
66603;SDS011;53460;39.612;8.822;2023-06-14T02:31:50;4.65;;;1.98;;
66603;SDS011;53460;39.612;8.822;2023-06-14T02:34:19;4.95;;;1.88;;
66603;SDS011;53460;39.612;8.822;2023-06-14T02:36:46;3.22;;;1.75;;
66603;SDS011;53460;39.612;8.822;2023-06-14T02:39:13;7.35;;;2.17;;
66603;SDS011;53460;39.612;8.822;2023-06-14T02:41:38;5.28;;;2.35;;
66603;SDS011;53460;39.612;8.822;2023-06-14T02:44:04;6.57;;;2.08;;
66603;SDS011;53460;39.612;8.822;2023-06-14T02:46:30;6.55;;;2.35;;
66603;SDS011;53460;39.612;8.822;2023-06-14T02:48:55;7.00;;;2.28;;
66603;SDS011;53460;39.612;8.822;2023-06-14T02:51:20;6.40;;;2.33;;
66603;SDS011;53460;39.612;8.822;2023-06-14T02:53:46;5.63;;;2.40;;
66603;SDS011;53460;39.612;8.822;2023-06-14T02:56:12;4.40;;;2.17;;
66603;SDS011;53460;39.612;8.822;2023-06-14T02:58:37;5.68;;;1.80;;
66603;SDS011;53460;39.612;8.822;2023-06-14T03:01:04;4.85;;;2.67;;
66603;SDS011;53460;39.612;8.822;2023-06-14T03:03:32;8.10;;;2.40;;
66603;SDS011;53460;39.612;8.822;2023-06-14T03:05:57;3.70;;;2.20;;
66603;SDS011;53460;39.612;8.822;2023-06-14T03:08:26;4.15;;;2.17;;
66603;SDS011;53460;39.612;8.822;2023-06-14T03:10:56;4.78;;;2.63;;
66603;SDS011;53460;39.612;8.822;2023-06-14T03:13:23;10.82;;;2.95;;
66603;SDS011;53460;39.612;8.822;2023-06-14T03:15:50;5.53;;;2.45;;
66603;SDS011;53460;39.612;8.822;2023-06-14T03:18:18;8.10;;;2.33;;
66603;SDS011;53460;39.612;8.822;2023-06-14T03:20:45;6.10;;;2.40;;
66603;SDS011;53460;39.612;8.822;2023-06-14T03:23:13;7.35;;;2.65;;
66603;SDS011;53460;39.612;8.822;2023-06-14T03:25:39;5.47;;;2.20;;
66603;SDS011;53460;39.612;8.822;2023-06-14T03:28:08;7.10;;;2.05;;
66603;SDS011;53460;39.612;8.822;2023-06-14T03:30:34;6.97;;;2.85;;
66603;SDS011;53460;39.612;8.822;2023-06-14T03:33:00;6.07;;;2.38;;
66603;SDS011;53460;39.612;8.822;2023-06-14T03:35:28;5.93;;;2.00;;
66603;SDS011;53460;39.612;8.822;2023-06-14T03:37:54;4.68;;;2.13;;
66603;SDS011;53460;39.612;8.822;2023-06-14T03:40:20;11.00;;;2.67;;
66603;SDS011;53460;39.612;8.822;2023-06-14T03:42:50;6.93;;;2.58;;
66603;SDS011;53460;39.612;8.822;2023-06-14T03:45:17;6.47;;;2.42;;
66603;SDS011;53460;39.612;8.822;2023-06-14T03:47:42;4.10;;;2.45;;
66603;SDS011;53460;39.612;8.822;2023-06-14T03:50:08;5.55;;;2.05;;
66603;SDS011;53460;39.612;8.822;2023-06-14T03:52:34;3.85;;;2.08;;
66603;SDS011;53460;39.612;8.822;2023-06-14T03:54:59;5.18;;;2.25;;
66603;SDS011;53460;39.612;8.822;2023-06-14T03:57:29;4.82;;;2.20;;
66603;SDS011;53460;39.612;8.822;2023-06-14T03:59:55;5.50;;;2.10;;
66603;SDS011;53460;39.612;8.822;2023-06-14T04:02:21;7.85;;;2.30;;
66603;SDS011;53460;39.612;8.822;2023-06-14T04:04:48;6.68;;;2.22;;
66603;SDS011;53460;39.612;8.822;2023-06-14T04:07:14;7.85;;;2.20;;
66603;SDS011;53460;39.612;8.822;2023-06-14T04:09:39;4.50;;;2.40;;
66603;SDS011;53460;39.612;8.822;2023-06-14T04:12:06;6.53;;;2.22;;
66603;SDS011;53460;39.612;8.822;2023-06-14T04:14:32;4.90;;;1.90;;
66603;SDS011;53460;39.612;8.822;2023-06-14T04:16:59;8.45;;;2.53;;
66603;SDS011;53460;39.612;8.822;2023-06-14T04:19:25;7.18;;;2.00;;
66603;SDS011;53460;39.612;8.822;2023-06-14T04:21:52;4.22;;;2.03;;
66603;SDS011;53460;39.612;8.822;2023-06-14T04:24:17;9.30;;;2.25;;
66603;SDS011;53460;39.612;8.822;2023-06-14T04:26:46;3.45;;;1.98;;
66603;SDS011;53460;39.612;8.822;2023-06-14T04:29:15;6.28;;;2.10;;
66603;SDS011;53460;39.612;8.822;2023-06-14T04:31:45;8.88;;;2.33;;
66603;SDS011;53460;39.612;8.822;2023-06-14T04:34:11;6.10;;;2.38;;
66603;SDS011;53460;39.612;8.822;2023-06-14T04:36:42;4.68;;;2.05;;
66603;SDS011;53460;39.612;8.822;2023-06-14T04:39:16;6.60;;;1.92;;
66603;SDS011;53460;39.612;8.822;2023-06-14T04:41:44;10.10;;;2.40;;
66603;SDS011;53460;39.612;8.822;2023-06-14T04:44:10;6.32;;;2.13;;
66603;SDS011;53460;39.612;8.822;2023-06-14T04:46:40;7.10;;;2.47;;
66603;SDS011;53460;39.612;8.822;2023-06-14T04:49:15;5.47;;;2.35;;
66603;SDS011;53460;39.612;8.822;2023-06-14T04:51:42;6.18;;;2.55;;
66603;SDS011;53460;39.612;8.822;2023-06-14T04:54:08;7.07;;;3.30;;
66603;SDS011;53460;39.612;8.822;2023-06-14T04:56:35;22.50;;;16.08;;
66603;SDS011;53460;39.612;8.822;2023-06-14T04:59:02;16.48;;;9.07;;
66603;SDS011;53460;39.612;8.822;2023-06-14T05:01:30;8.55;;;5.00;;
66603;SDS011;53460;39.612;8.822;2023-06-14T05:03:57;13.77;;;5.45;;
66603;SDS011;53460;39.612;8.822;2023-06-14T05:06:23;10.32;;;3.20;;
66603;SDS011;53460;39.612;8.822;2023-06-14T05:08:49;13.27;;;3.67;;
66603;SDS011;53460;39.612;8.822;2023-06-14T05:11:15;9.07;;;3.45;;
66603;SDS011;53460;39.612;8.822;2023-06-14T05:13:42;15.57;;;3.13;;
66603;SDS011;53460;39.612;8.822;2023-06-14T05:16:12;12.75;;;3.30;;
66603;SDS011;53460;39.612;8.822;2023-06-14T05:18:37;16.52;;;3.90;;
66603;SDS011;53460;39.612;8.822;2023-06-14T05:21:03;11.70;;;3.10;;
66603;SDS011;53460;39.612;8.822;2023-06-14T05:23:30;10.95;;;4.15;;
66603;SDS011;53460;39.612;8.822;2023-06-14T05:25:56;9.82;;;3.17;;
66603;SDS011;53460;39.612;8.822;2023-06-14T05:28:22;13.05;;;3.78;;
66603;SDS011;53460;39.612;8.822;2023-06-14T05:30:47;9.85;;;3.17;;
66603;SDS011;53460;39.612;8.822;2023-06-14T05:33:13;12.48;;;3.35;;
66603;SDS011;53460;39.612;8.822;2023-06-14T05:35:38;11.40;;;3.15;;
66603;SDS011;53460;39.612;8.822;2023-06-14T05:38:04;12.73;;;3.42;;
66603;SDS011;53460;39.612;8.822;2023-06-14T05:40:29;10.40;;;3.42;;
66603;SDS011;53460;39.612;8.822;2023-06-14T05:42:55;12.50;;;3.03;;
66603;SDS011;53460;39.612;8.822;2023-06-14T05:45:20;7.65;;;2.78;;
66603;SDS011;53460;39.612;8.822;2023-06-14T05:47:46;6.00;;;2.60;;
66603;SDS011;53460;39.612;8.822;2023-06-14T05:50:11;11.48;;;3.33;;
66603;SDS011;53460;39.612;8.822;2023-06-14T05:52:37;10.70;;;2.70;;
66603;SDS011;53460;39.612;8.822;2023-06-14T05:55:03;12.05;;;3.13;;
66603;SDS011;53460;39.612;8.822;2023-06-14T05:57:28;11.50;;;4.43;;
66603;SDS011;53460;39.612;8.822;2023-06-14T05:59:54;15.32;;;3.65;;
66603;SDS011;53460;39.612;8.822;2023-06-14T06:02:20;14.43;;;3.40;;
66603;SDS011;53460;39.612;8.822;2023-06-14T06:04:45;10.23;;;3.17;;
66603;SDS011;53460;39.612;8.822;2023-06-14T06:07:11;10.18;;;3.05;;
66603;SDS011;53460;39.612;8.822;2023-06-14T06:09:36;14.52;;;4.50;;
66603;SDS011;53460;39.612;8.822;2023-06-14T06:12:02;14.20;;;3.75;;
66603;SDS011;53460;39.612;8.822;2023-06-14T06:14:28;9.52;;;2.88;;
66603;SDS011;53460;39.612;8.822;2023-06-14T06:16:54;9.20;;;3.15;;
66603;SDS011;53460;39.612;8.822;2023-06-14T06:19:19;11.77;;;3.72;;
66603;SDS011;53460;39.612;8.822;2023-06-14T06:21:45;13.55;;;3.85;;
66603;SDS011;53460;39.612;8.822;2023-06-14T06:24:11;10.93;;;3.15;;
66603;SDS011;53460;39.612;8.822;2023-06-14T06:26:36;10.15;;;3.13;;
66603;SDS011;53460;39.612;8.822;2023-06-14T06:29:02;16.02;;;3.80;;
66603;SDS011;53460;39.612;8.822;2023-06-14T06:31:27;17.83;;;4.18;;
66603;SDS011;53460;39.612;8.822;2023-06-14T06:33:56;10.45;;;3.15;;
66603;SDS011;53460;39.612;8.822;2023-06-14T06:36:21;8.77;;;3.70;;
66603;SDS011;53460;39.612;8.822;2023-06-14T06:38:47;8.90;;;3.45;;
66603;SDS011;53460;39.612;8.822;2023-06-14T06:41:13;7.25;;;2.92;;
66603;SDS011;53460;39.612;8.822;2023-06-14T06:43:38;8.55;;;3.22;;
66603;SDS011;53460;39.612;8.822;2023-06-14T06:46:04;8.85;;;4.47;;
66603;SDS011;53460;39.612;8.822;2023-06-14T06:48:29;10.48;;;4.30;;
66603;SDS011;53460;39.612;8.822;2023-06-14T06:50:55;12.95;;;3.80;;
66603;SDS011;53460;39.612;8.822;2023-06-14T06:53:20;10.68;;;3.80;;
66603;SDS011;53460;39.612;8.822;2023-06-14T06:55:46;8.55;;;3.55;;
66603;SDS011;53460;39.612;8.822;2023-06-14T06:58:12;11.77;;;3.72;;
66603;SDS011;53460;39.612;8.822;2023-06-14T07:00:37;10.10;;;3.40;;
66603;SDS011;53460;39.612;8.822;2023-06-14T07:03:03;12.40;;;3.80;;
66603;SDS011;53460;39.612;8.822;2023-06-14T07:05:29;9.95;;;3.80;;
66603;SDS011;53460;39.612;8.822;2023-06-14T07:07:55;10.88;;;3.97;;
66603;SDS011;53460;39.612;8.822;2023-06-14T07:10:20;15.77;;;5.88;;
66603;SDS011;53460;39.612;8.822;2023-06-14T07:12:46;12.93;;;4.00;;
66603;SDS011;53460;39.612;8.822;2023-06-14T07:15:11;14.63;;;3.88;;
66603;SDS011;53460;39.612;8.822;2023-06-14T07:17:36;11.98;;;3.90;;
66603;SDS011;53460;39.612;8.822;2023-06-14T07:20:03;9.18;;;4.78;;
66603;SDS011;53460;39.612;8.822;2023-06-14T07:22:32;10.85;;;3.38;;
66603;SDS011;53460;39.612;8.822;2023-06-14T07:24:58;9.63;;;3.30;;
66603;SDS011;53460;39.612;8.822;2023-06-14T07:27:23;11.30;;;4.40;;
66603;SDS011;53460;39.612;8.822;2023-06-14T07:29:49;11.50;;;4.78;;
66603;SDS011;53460;39.612;8.822;2023-06-14T07:32:14;21.52;;;5.65;;
66603;SDS011;53460;39.612;8.822;2023-06-14T07:34:40;12.88;;;4.82;;
66603;SDS011;53460;39.612;8.822;2023-06-14T07:37:05;10.95;;;4.53;;
66603;SDS011;53460;39.612;8.822;2023-06-14T07:39:31;12.25;;;3.90;;
66603;SDS011;53460;39.612;8.822;2023-06-14T07:41:56;5.90;;;3.45;;
66603;SDS011;53460;39.612;8.822;2023-06-14T07:44:22;5.90;;;2.75;;
66603;SDS011;53460;39.612;8.822;2023-06-14T07:46:47;5.10;;;2.80;;
66603;SDS011;53460;39.612;8.822;2023-06-14T07:49:14;7.47;;;3.22;;
66603;SDS011;53460;39.612;8.822;2023-06-14T07:51:40;8.25;;;3.35;;
66603;SDS011;53460;39.612;8.822;2023-06-14T07:54:05;7.13;;;3.03;;
66603;SDS011;53460;39.612;8.822;2023-06-14T07:56:32;7.75;;;3.05;;
66603;SDS011;53460;39.612;8.822;2023-06-14T07:58:58;6.03;;;3.00;;
66603;SDS011;53460;39.612;8.822;2023-06-14T08:01:23;4.70;;;2.67;;
66603;SDS011;53460;39.612;8.822;2023-06-14T08:03:50;10.52;;;2.83;;
66603;SDS011;53460;39.612;8.822;2023-06-14T08:06:16;4.97;;;2.58;;
66603;SDS011;53460;39.612;8.822;2023-06-14T08:08:41;6.32;;;2.60;;
66603;SDS011;53460;39.612;8.822;2023-06-14T08:11:07;6.82;;;2.67;;
66603;SDS011;53460;39.612;8.822;2023-06-14T08:13:32;4.97;;;2.53;;
66603;SDS011;53460;39.612;8.822;2023-06-14T08:15:58;4.43;;;2.40;;
66603;SDS011;53460;39.612;8.822;2023-06-14T08:18:25;4.40;;;2.50;;
66603;SDS011;53460;39.612;8.822;2023-06-14T08:20:51;7.88;;;2.50;;
66603;SDS011;53460;39.612;8.822;2023-06-14T08:23:17;6.93;;;2.95;;
66603;SDS011;53460;39.612;8.822;2023-06-14T08:25:44;5.22;;;2.40;;
66603;SDS011;53460;39.612;8.822;2023-06-14T08:28:10;6.75;;;3.30;;
66603;SDS011;53460;39.612;8.822;2023-06-14T08:30:35;11.07;;;3.35;;
66603;SDS011;53460;39.612;8.822;2023-06-14T08:33:01;8.73;;;3.00;;
66603;SDS011;53460;39.612;8.822;2023-06-14T08:35:27;6.35;;;2.97;;
66603;SDS011;53460;39.612;8.822;2023-06-14T08:37:52;5.45;;;2.17;;
66603;SDS011;53460;39.612;8.822;2023-06-14T08:40:22;6.03;;;2.08;;
66603;SDS011;53460;39.612;8.822;2023-06-14T08:42:51;3.85;;;2.58;;
66603;SDS011;53460;39.612;8.822;2023-06-14T08:45:18;4.32;;;2.20;;
66603;SDS011;53460;39.612;8.822;2023-06-14T08:47:43;4.93;;;2.38;;
66603;SDS011;53460;39.612;8.822;2023-06-14T08:50:10;3.47;;;2.28;;
66603;SDS011;53460;39.612;8.822;2023-06-14T08:52:38;6.57;;;2.35;;
66603;SDS011;53460;39.612;8.822;2023-06-14T08:55:15;5.20;;;2.00;;
66603;SDS011;53460;39.612;8.822;2023-06-14T08:57:43;4.65;;;2.67;;
66603;SDS011;53460;39.612;8.822;2023-06-14T09:00:09;6.28;;;2.47;;
66603;SDS011;53460;39.612;8.822;2023-06-14T09:02:38;4.38;;;2.03;;
66603;SDS011;53460;39.612;8.822;2023-06-14T09:05:09;7.80;;;2.47;;
66603;SDS011;53460;39.612;8.822;2023-06-14T09:07:34;3.20;;;2.00;;
66603;SDS011;53460;39.612;8.822;2023-06-14T09:10:10;4.85;;;1.88;;
66603;SDS011;53460;39.612;8.822;2023-06-14T09:12:36;3.65;;;1.85;;
66603;SDS011;53460;39.612;8.822;2023-06-14T09:15:02;4.15;;;2.05;;
66603;SDS011;53460;39.612;8.822;2023-06-14T09:17:37;4.53;;;2.13;;
66603;SDS011;53460;39.612;8.822;2023-06-14T09:20:03;3.95;;;1.83;;
66603;SDS011;53460;39.612;8.822;2023-06-14T09:22:35;2.38;;;1.85;;
66603;SDS011;53460;39.612;8.822;2023-06-14T09:25:00;5.57;;;2.17;;
66603;SDS011;53460;39.612;8.822;2023-06-14T09:27:26;7.40;;;2.63;;
66603;SDS011;53460;39.612;8.822;2023-06-14T09:29:52;4.57;;;1.90;;
66603;SDS011;53460;39.612;8.822;2023-06-14T09:32:17;6.40;;;1.95;;
66603;SDS011;53460;39.612;8.822;2023-06-14T09:34:43;5.32;;;2.35;;
66603;SDS011;53460;39.612;8.822;2023-06-14T09:37:09;3.05;;;2.20;;
66603;SDS011;53460;39.612;8.822;2023-06-14T09:39:34;4.65;;;1.90;;
66603;SDS011;53460;39.612;8.822;2023-06-14T09:42:00;3.95;;;2.10;;
66603;SDS011;53460;39.612;8.822;2023-06-14T09:44:25;5.60;;;2.30;;
66603;SDS011;53460;39.612;8.822;2023-06-14T09:46:53;5.05;;;2.50;;
66603;SDS011;53460;39.612;8.822;2023-06-14T09:49:20;4.90;;;2.25;;
66603;SDS011;53460;39.612;8.822;2023-06-14T09:51:46;3.17;;;1.98;;
66603;SDS011;53460;39.612;8.822;2023-06-14T09:54:16;3.08;;;1.90;;
66603;SDS011;53460;39.612;8.822;2023-06-14T09:56:46;4.50;;;2.90;;
66603;SDS011;53460;39.612;8.822;2023-06-14T09:59:12;4.60;;;2.50;;
66603;SDS011;53460;39.612;8.822;2023-06-14T10:01:44;7.88;;;2.40;;
66603;SDS011;53460;39.612;8.822;2023-06-14T10:04:10;6.35;;;2.72;;
66603;SDS011;53460;39.612;8.822;2023-06-14T10:06:36;7.50;;;2.58;;
66603;SDS011;53460;39.612;8.822;2023-06-14T10:09:03;7.85;;;2.05;;
66603;SDS011;53460;39.612;8.822;2023-06-14T10:11:29;5.63;;;2.00;;
66603;SDS011;53460;39.612;8.822;2023-06-14T10:13:55;5.00;;;2.15;;
66603;SDS011;53460;39.612;8.822;2023-06-14T10:16:30;5.15;;;2.20;;
66603;SDS011;53460;39.612;8.822;2023-06-14T10:24:09;2.80;;;1.85;;
66603;SDS011;53460;39.612;8.822;2023-06-14T10:26:40;4.60;;;2.28;;
66603;SDS011;53460;39.612;8.822;2023-06-14T10:29:15;3.08;;;2.20;;
66603;SDS011;53460;39.612;8.822;2023-06-14T10:31:44;10.18;;;2.50;;
66603;SDS011;53460;39.612;8.822;2023-06-14T10:34:10;4.28;;;2.17;;
66603;SDS011;53460;39.612;8.822;2023-06-14T10:36:36;2.40;;;2.03;;
66603;SDS011;53460;39.612;8.822;2023-06-14T10:39:05;7.40;;;2.00;;
66603;SDS011;53460;39.612;8.822;2023-06-14T10:41:34;5.38;;;2.10;;
66603;SDS011;53460;39.612;8.822;2023-06-14T10:47:09;4.70;;;1.70;;
66603;SDS011;53460;39.612;8.822;2023-06-14T10:49:39;4.93;;;1.90;;
66603;SDS011;53460;39.612;8.822;2023-06-14T10:52:08;5.00;;;1.90;;
66603;SDS011;53460;39.612;8.822;2023-06-14T10:54:51;5.40;;;1.88;;
66603;SDS011;53460;39.612;8.822;2023-06-14T10:57:20;3.95;;;1.83;;
66603;SDS011;53460;39.612;8.822;2023-06-14T10:59:45;3.78;;;1.80;;
66603;SDS011;53460;39.612;8.822;2023-06-14T11:04:52;5.13;;;1.85;;
66603;SDS011;53460;39.612;8.822;2023-06-14T11:12:45;3.25;;;1.60;;
66603;SDS011;53460;39.612;8.822;2023-06-14T11:15:12;2.35;;;1.50;;
66603;SDS011;53460;39.612;8.822;2023-06-14T11:17:38;3.20;;;1.67;;
66603;SDS011;53460;39.612;8.822;2023-06-14T11:20:09;3.20;;;1.38;;
66603;SDS011;53460;39.612;8.822;2023-06-14T11:22:40;2.88;;;1.45;;
66603;SDS011;53460;39.612;8.822;2023-06-14T11:25:08;4.28;;;1.17;;
66603;SDS011;53460;39.612;8.822;2023-06-14T11:27:33;1.50;;;1.08;;
66603;SDS011;53460;39.612;8.822;2023-06-14T11:29:59;3.65;;;1.27;;
66603;SDS011;53460;39.612;8.822;2023-06-14T11:32:24;6.15;;;1.20;;
66603;SDS011;53460;39.612;8.822;2023-06-14T11:34:52;3.25;;;1.85;;
66603;SDS011;53460;39.612;8.822;2023-06-14T11:37:17;2.70;;;1.00;;
66603;SDS011;53460;39.612;8.822;2023-06-14T11:39:43;1.52;;;1.00;;
66603;SDS011;53460;39.612;8.822;2023-06-14T11:42:13;2.55;;;1.27;;
66603;SDS011;53460;39.612;8.822;2023-06-14T11:44:38;2.53;;;1.20;;
66603;SDS011;53460;39.612;8.822;2023-06-14T11:47:04;3.15;;;1.33;;
66603;SDS011;53460;39.612;8.822;2023-06-14T11:49:29;4.70;;;1.27;;
66603;SDS011;53460;39.612;8.822;2023-06-14T11:51:59;2.55;;;1.30;;
66603;SDS011;53460;39.612;8.822;2023-06-14T11:54:25;5.38;;;1.80;;
66603;SDS011;53460;39.612;8.822;2023-06-14T11:56:51;2.75;;;1.15;;
66603;SDS011;53460;39.612;8.822;2023-06-14T11:59:17;4.10;;;1.38;;
66603;SDS011;53460;39.612;8.822;2023-06-14T12:01:42;3.03;;;1.50;;
66603;SDS011;53460;39.612;8.822;2023-06-14T12:04:08;4.30;;;1.80;;
66603;SDS011;53460;39.612;8.822;2023-06-14T12:06:34;3.35;;;1.35;;
66603;SDS011;53460;39.612;8.822;2023-06-14T12:09:04;3.42;;;1.50;;
66603;SDS011;53460;39.612;8.822;2023-06-14T12:11:32;2.95;;;1.25;;
66603;SDS011;53460;39.612;8.822;2023-06-14T12:13:58;1.70;;;1.40;;
66603;SDS011;53460;39.612;8.822;2023-06-14T12:16:29;1.92;;;1.10;;
66603;SDS011;53460;39.612;8.822;2023-06-14T12:18:55;2.83;;;1.10;;
66603;SDS011;53460;39.612;8.822;2023-06-14T12:21:22;1.38;;;1.20;;
66603;SDS011;53460;39.612;8.822;2023-06-14T12:23:48;1.55;;;1.23;;
66603;SDS011;53460;39.612;8.822;2023-06-14T12:28:41;4.10;;;1.30;;
66603;SDS011;53460;39.612;8.822;2023-06-14T12:31:10;1.42;;;1.10;;
66603;SDS011;53460;39.612;8.822;2023-06-14T12:33:36;9.63;;;2.45;;
66603;SDS011;53460;39.612;8.822;2023-06-14T12:36:05;2.80;;;1.70;;
66603;SDS011;53460;39.612;8.822;2023-06-14T12:38:33;4.20;;;1.52;;
66603;SDS011;53460;39.612;8.822;2023-06-14T12:40:59;1.70;;;1.50;;
66603;SDS011;53460;39.612;8.822;2023-06-14T12:43:25;2.50;;;1.80;;
66603;SDS011;53460;39.612;8.822;2023-06-14T12:45:50;2.95;;;1.77;;
66603;SDS011;53460;39.612;8.822;2023-06-14T12:48:16;2.17;;;1.77;;
66603;SDS011;53460;39.612;8.822;2023-06-14T12:50:41;2.15;;;1.70;;
66603;SDS011;53460;39.612;8.822;2023-06-14T12:53:07;4.50;;;1.80;;
66603;SDS011;53460;39.612;8.822;2023-06-14T12:55:33;4.35;;;1.58;;
66603;SDS011;53460;39.612;8.822;2023-06-14T12:57:58;7.70;;;2.08;;
66603;SDS011;53460;39.612;8.822;2023-06-14T13:00:24;4.50;;;1.58;;
66603;SDS011;53460;39.612;8.822;2023-06-14T13:02:51;2.65;;;1.90;;
66603;SDS011;53460;39.612;8.822;2023-06-14T13:05:17;2.15;;;1.67;;
66603;SDS011;53460;39.612;8.822;2023-06-14T13:07:42;2.45;;;1.92;;
66603;SDS011;53460;39.612;8.822;2023-06-14T13:10:08;2.70;;;1.90;;
66603;SDS011;53460;39.612;8.822;2023-06-14T13:12:33;2.58;;;1.80;;
66603;SDS011;53460;39.612;8.822;2023-06-14T13:14:59;3.95;;;1.52;;
66603;SDS011;53460;39.612;8.822;2023-06-14T13:17:24;4.88;;;2.03;;
66603;SDS011;53460;39.612;8.822;2023-06-14T13:19:50;3.00;;;1.70;;
66603;SDS011;53460;39.612;8.822;2023-06-14T13:22:15;3.08;;;2.08;;
66603;SDS011;53460;39.612;8.822;2023-06-14T13:24:41;2.42;;;1.70;;
66603;SDS011;53460;39.612;8.822;2023-06-14T13:27:06;3.13;;;1.50;;
66603;SDS011;53460;39.612;8.822;2023-06-14T13:29:32;2.03;;;1.42;;
66603;SDS011;53460;39.612;8.822;2023-06-14T13:31:58;3.75;;;1.50;;
66603;SDS011;53460;39.612;8.822;2023-06-14T13:34:24;2.40;;;1.20;;
66603;SDS011;53460;39.612;8.822;2023-06-14T13:36:49;2.65;;;1.30;;
66603;SDS011;53460;39.612;8.822;2023-06-14T13:39:15;3.80;;;1.30;;
66603;SDS011;53460;39.612;8.822;2023-06-14T13:41:41;2.05;;;1.35;;
66603;SDS011;53460;39.612;8.822;2023-06-14T13:44:06;2.00;;;1.40;;
66603;SDS011;53460;39.612;8.822;2023-06-14T13:46:31;1.55;;;1.35;;
66603;SDS011;53460;39.612;8.822;2023-06-14T13:48:57;1.75;;;1.38;;
66603;SDS011;53460;39.612;8.822;2023-06-14T13:51:23;1.58;;;1.17;;
66603;SDS011;53460;39.612;8.822;2023-06-14T13:53:48;2.08;;;1.25;;
66603;SDS011;53460;39.612;8.822;2023-06-14T13:56:15;1.85;;;1.27;;
66603;SDS011;53460;39.612;8.822;2023-06-14T13:58:40;17.20;;;1.55;;
66603;SDS011;53460;39.612;8.822;2023-06-14T14:01:06;1.45;;;1.25;;
66603;SDS011;53460;39.612;8.822;2023-06-14T14:03:32;1.63;;;1.15;;
66603;SDS011;53460;39.612;8.822;2023-06-14T14:05:58;5.70;;;1.20;;
66603;SDS011;53460;39.612;8.822;2023-06-14T14:08:23;1.33;;;1.15;;
66603;SDS011;53460;39.612;8.822;2023-06-14T14:10:49;1.92;;;1.30;;
66603;SDS011;53460;39.612;8.822;2023-06-14T14:13:15;1.27;;;1.08;;
66603;SDS011;53460;39.612;8.822;2023-06-14T14:15:40;1.58;;;1.15;;
66603;SDS011;53460;39.612;8.822;2023-06-14T14:18:06;3.55;;;1.70;;
66603;SDS011;53460;39.612;8.822;2023-06-14T14:20:32;2.38;;;1.60;;
66603;SDS011;53460;39.612;8.822;2023-06-14T14:22:57;1.95;;;1.17;;
66603;SDS011;53460;39.612;8.822;2023-06-14T14:25:23;1.50;;;1.20;;
66603;SDS011;53460;39.612;8.822;2023-06-14T14:27:48;1.63;;;1.52;;
66603;SDS011;53460;39.612;8.822;2023-06-14T14:30:14;2.15;;;1.25;;
66603;SDS011;53460;39.612;8.822;2023-06-14T14:32:41;1.83;;;1.00;;
66603;SDS011;53460;39.612;8.822;2023-06-14T14:35:08;2.13;;;1.27;;
66603;SDS011;53460;39.612;8.822;2023-06-14T14:37:34;1.88;;;1.30;;
66603;SDS011;53460;39.612;8.822;2023-06-14T14:39:59;1.15;;;1.05;;
66603;SDS011;53460;39.612;8.822;2023-06-14T14:42:25;1.83;;;1.30;;
66603;SDS011;53460;39.612;8.822;2023-06-14T14:44:51;7.05;;;2.97;;
66603;SDS011;53460;39.612;8.822;2023-06-14T14:47:17;2.67;;;1.20;;
66603;SDS011;53460;39.612;8.822;2023-06-14T14:49:42;1.95;;;1.00;;
66603;SDS011;53460;39.612;8.822;2023-06-14T14:52:08;2.38;;;1.40;;
66603;SDS011;53460;39.612;8.822;2023-06-14T14:54:33;2.78;;;1.40;;
66603;SDS011;53460;39.612;8.822;2023-06-14T14:56:59;2.10;;;1.30;;
66603;SDS011;53460;39.612;8.822;2023-06-14T14:59:24;4.13;;;1.27;;
66603;SDS011;53460;39.612;8.822;2023-06-14T15:01:50;1.65;;;1.00;;